Time;durP1;ratioP1;P1;durP2;ratioP2;P2;SDS_P1;SDS_P2;PMS_P1;PMS_P2;Temp;Humidity;BMP_temperature;BMP_pressure;BME280_temperature;BME280_humidity;BME280_pressure;Samples;Min_cycle;Max_cycle;Signal;HPM_P1;HPM_P2
2023/11/17 00:00:19;;;;;;;0.75;0.75;;;;;;;;;;1032992;28;20577;-70
2023/11/17 00:00:52;;;;;;;0.35;0.35;;;;;;;;;;1034243;28;20034;-70
2023/11/17 00:01:22;;;;;;;0.10;0.10;;;;;;;;;;1033209;28;20025;-70
2023/11/17 00:01:53;;;;;;;0.10;0.10;;;;;;;;;;1033297;28;20076;-69
2023/11/17 00:02:23;;;;;;;0.30;0.30;;;;;;;;;;1033354;28;20026;-70
2023/11/17 00:02:54;;;;;;;2.00;1.85;;;;;;;;;;1033408;28;20018;-70
2023/11/17 00:03:29;;;;;;;0.40;0.40;;;;;;;;;;1033359;28;20026;-71
2023/11/17 00:03:59;;;;;;;0.80;0.50;;;;;;;;;;1031969;28;20033;-70
2023/11/17 00:04:30;;;;;;;0.20;0.20;;;;;;;;;;1033234;28;20029;-71
2023/11/17 00:05:00;;;;;;;0.10;0.10;;;;;;;;;;1033163;28;20025;-70
2023/11/17 00:05:31;;;;;;;0.10;0.10;;;;;;;;;;1033555;28;20022;-72
2023/11/17 00:06:03;;;;;;;0.68;0.68;;;;;;;;;;1032913;28;20378;-72
2023/11/17 00:06:33;;;;;;;0.20;0.20;;;;;;;;;;1032713;28;20126;-70
2023/11/17 00:07:04;;;;;;;2.88;1.98;;;;;;;;;;1033145;28;20508;-70
2023/11/17 00:07:35;;;;;;;0.25;0.25;;;;;;;;;;1032623;28;20017;-70
2023/11/17 00:08:05;;;;;;;0.95;0.95;;;;;;;;;;1032694;28;20026;-71
2023/11/17 00:08:36;;;;;;;0.40;0.40;;;;;;;;;;1033278;28;20486;-71
2023/11/17 00:09:10;;;;;;;1.63;1.20;;;;;;;;;;1033677;28;20034;-70
2023/11/17 00:09:41;;;;;;;0.10;0.10;;;;;;;;;;1033299;28;20436;-71
2023/11/17 00:10:13;;;;;;;0.10;0.10;;;;;;;;;;1033508;28;20023;-72
2023/11/17 00:10:44;;;;;;;0.38;0.20;;;;;;;;;;1033186;28;20486;-71
2023/11/17 00:11:14;;;;;;;0.10;0.10;;;;;;;;;;1033436;28;20022;-72
2023/11/17 00:11:45;;;;;;;0.28;0.28;;;;;;;;;;1033437;28;20479;-72
2023/11/17 00:12:15;;;;;;;0.20;0.20;;;;;;;;;;1033343;28;20080;-71
2023/11/17 00:12:46;;;;;;;1.83;0.77;;;;;;;;;;1033288;28;20072;-71
2023/11/17 00:13:16;;;;;;;0.63;0.63;;;;;;;;;;1033181;28;20367;-73
2023/11/17 00:13:49;;;;;;;0.10;0.10;;;;;;;;;;1033068;28;20061;-71
2023/11/17 00:14:20;;;;;;;0.10;0.10;;;;;;;;;;1032850;28;20030;-73
2023/11/17 00:14:51;;;;;;;0.20;0.20;;;;;;;;;;1033333;28;20018;-71
2023/11/17 00:15:21;;;;;;;1.25;1.05;;;;;;;;;;1032492;28;20026;-71
2023/11/17 00:15:52;;;;;;;0.10;0.10;;;;;;;;;;1033459;28;20466;-70
2023/11/17 00:16:23;;;;;;;0.30;0.30;;;;;;;;;;1032942;28;20034;-71
2023/11/17 00:16:54;;;;;;;0.55;0.38;;;;;;;;;;1033832;28;20037;-71
2023/11/17 00:17:24;;;;;;;0.40;0.40;;;;;;;;;;1033390;28;20109;-71
2023/11/17 00:17:55;;;;;;;0.90;0.55;;;;;;;;;;1033550;28;20041;-70
2023/11/17 00:18:26;;;;;;;1.00;0.40;;;;;;;;;;1033220;28;20033;-71
2023/11/17 00:18:56;;;;;;;0.43;0.40;;;;;;;;;;1033381;28;20161;-70
2023/11/17 00:19:28;;;;;;;0.63;0.63;;;;;;;;;;1033119;28;20382;-71
2023/11/17 00:19:58;;;;;;;1.10;0.63;;;;;;;;;;1033580;28;20117;-72
2023/11/17 00:20:29;;;;;;;0.57;0.57;;;;;;;;;;1033200;28;20056;-70
2023/11/17 00:21:00;;;;;;;0.30;0.20;;;;;;;;;;1033273;28;20536;-71
2023/11/17 00:21:30;;;;;;;0.10;0.10;;;;;;;;;;1033278;28;20014;-71
2023/11/17 00:22:01;;;;;;;0.10;0.10;;;;;;;;;;1033350;28;20014;-71
2023/11/17 00:22:31;;;;;;;0.68;0.68;;;;;;;;;;1032247;28;20033;-70
2023/11/17 00:23:03;;;;;;;0.20;0.20;;;;;;;;;;1033524;28;20029;-70
2023/11/17 00:23:33;;;;;;;0.70;0.70;;;;;;;;;;1033354;28;20052;-70
2023/11/17 00:24:05;;;;;;;0.45;0.45;;;;;;;;;;1033686;28;20561;-71
2023/11/17 00:24:36;;;;;;;0.20;0.20;;;;;;;;;;1033988;28;20378;-70
2023/11/17 00:25:08;;;;;;;0.73;0.73;;;;;;;;;;1033223;28;20084;-70
2023/11/17 00:25:39;;;;;;;0.15;0.15;;;;;;;;;;1032929;28;20098;-70
2023/11/17 00:26:09;;;;;;;0.75;0.75;;;;;;;;;;1032965;28;20465;-70
2023/11/17 00:26:40;;;;;;;0.85;0.85;;;;;;;;;;1032867;28;20018;-70
2023/11/17 00:27:11;;;;;;;0.63;0.63;;;;;;;;;;1033078;28;20030;-70
2023/11/17 00:27:42;;;;;;;2.22;2.05;;;;;;;;;;1033421;28;20046;-70
2023/11/17 00:28:13;;;;;;;0.45;0.45;;;;;;;;;;1032985;28;20390;-70
2023/11/17 00:28:43;;;;;;;0.82;0.82;;;;;;;;;;1033022;28;20014;-70
2023/11/17 00:29:14;;;;;;;0.10;0.10;;;;;;;;;;1032196;28;20390;-70
2023/11/17 00:29:44;;;;;;;0.73;0.73;;;;;;;;;;1033090;28;20527;-70
2023/11/17 00:30:15;;;;;;;0.10;0.10;;;;;;;;;;1033271;28;20022;-70
2023/11/17 00:30:45;;;;;;;0.98;0.45;;;;;;;;;;1033309;28;20053;-70
2023/11/17 00:31:16;;;;;;;0.20;0.20;;;;;;;;;;1033214;28;20049;-70
2023/11/17 00:31:46;;;;;;;5.18;0.52;;;;;;;;;;1033382;28;20014;-70
2023/11/17 00:32:17;;;;;;;0.10;0.10;;;;;;;;;;1033266;28;20109;-70
2023/11/17 00:32:47;;;;;;;0.10;0.10;;;;;;;;;;1033195;28;20030;-70
2023/11/17 00:33:19;;;;;;;0.10;0.10;;;;;;;;;;1033452;28;20378;-70
2023/11/17 00:33:52;;;;;;;0.10;0.10;;;;;;;;;;1033585;28;20036;-70
2023/11/17 00:34:22;;;;;;;0.10;0.10;;;;;;;;;;1033251;28;20117;-70
2023/11/17 00:34:53;;;;;;;2.53;0.88;;;;;;;;;;1033440;28;20036;-70
2023/11/17 00:35:24;;;;;;;0.00;0.00;;;;;;;;;;1033359;28;20034;-70
2023/11/17 00:35:54;;;;;;;0.17;0.17;;;;;;;;;;1033374;28;20108;-70
2023/11/17 00:36:25;;;;;;;0.25;0.17;;;;;;;;;;1033103;28;20026;-70
2023/11/17 00:36:58;;;;;;;0.75;0.75;;;;;;;;;;1033372;28;20077;-70
2023/11/17 00:37:28;;;;;;;0.13;0.13;;;;;;;;;;1033072;28;20014;-70
2023/11/17 00:37:59;;;;;;;0.55;0.55;;;;;;;;;;1033366;28;20862;-70
2023/11/17 00:38:31;;;;;;;0.32;0.32;;;;;;;;;;1033272;28;20488;-70
2023/11/17 00:39:02;;;;;;;0.10;0.10;;;;;;;;;;1033423;28;20030;-70
2023/11/17 00:39:33;;;;;;;0.52;0.52;;;;;;;;;;1033381;28;20018;-70
2023/11/17 00:40:07;;;;;;;0.13;0.13;;;;;;;;;;1032200;28;20588;-70
2023/11/17 00:40:38;;;;;;;0.10;0.10;;;;;;;;;;1033239;28;20018;-70
2023/11/17 00:41:10;;;;;;;2.08;1.58;;;;;;;;;;1033373;28;20022;-70
2023/11/17 00:41:41;;;;;;;0.10;0.10;;;;;;;;;;1033038;28;20025;-70
2023/11/17 00:42:12;;;;;;;0.10;0.10;;;;;;;;;;1033231;28;20057;-70
2023/11/17 00:42:42;;;;;;;0.10;0.10;;;;;;;;;;1031980;28;20025;-70
2023/11/17 00:43:13;;;;;;;0.10;0.10;;;;;;;;;;1033040;28;20073;-70
2023/11/17 00:43:44;;;;;;;0.20;0.20;;;;;;;;;;1033674;28;20066;-70
2023/11/17 00:44:15;;;;;;;1.15;1.05;;;;;;;;;;1032759;28;20600;-74
2023/11/17 00:44:46;;;;;;;0.20;0.20;;;;;;;;;;1033576;28;20173;-70
2023/11/17 00:45:18;;;;;;;0.10;0.10;;;;;;;;;;1033199;28;20014;-70
2023/11/17 00:45:51;;;;;;;0.10;0.10;;;;;;;;;;1032837;28;20544;-70
2023/11/17 00:46:22;;;;;;;0.10;0.10;;;;;;;;;;1032949;28;20026;-70
2023/11/17 00:46:53;;;;;;;0.32;0.32;;;;;;;;;;1033199;28;20026;-70
2023/11/17 00:47:24;;;;;;;7.68;0.65;;;;;;;;;;1033406;28;20100;-70
2023/11/17 00:47:55;;;;;;;0.75;0.75;;;;;;;;;;1033246;28;20022;-70
2023/11/17 00:48:27;;;;;;;0.40;0.35;;;;;;;;;;1033142;28;20477;-70
2023/11/17 00:48:59;;;;;;;0.28;0.28;;;;;;;;;;1033355;28;20045;-70
2023/11/17 00:49:30;;;;;;;0.10;0.10;;;;;;;;;;1033265;28;20050;-70
2023/11/17 00:50:01;;;;;;;0.17;0.17;;;;;;;;;;1033216;28;20495;-70
2023/11/17 00:50:32;;;;;;;1.60;1.35;;;;;;;;;;1032925;28;20026;-70
2023/11/17 00:51:03;;;;;;;0.10;0.10;;;;;;;;;;1032958;28;20026;-70
2023/11/17 00:51:34;;;;;;;0.10;0.10;;;;;;;;;;1032806;28;20018;-70
2023/11/17 00:52:05;;;;;;;0.10;0.10;;;;;;;;;;1033013;28;20022;-70
2023/11/17 00:52:36;;;;;;;0.13;0.13;;;;;;;;;;1033442;28;20127;-70
2023/11/17 00:53:07;;;;;;;0.05;0.05;;;;;;;;;;1033006;28;20018;-70
2023/11/17 00:53:37;;;;;;;1.75;1.38;;;;;;;;;;1032745;28;20030;-70
2023/11/17 00:54:08;;;;;;;0.20;0.20;;;;;;;;;;1033232;28;20093;-70
2023/11/17 00:54:47;;;;;;;0.40;0.40;;;;;;;;;;1032839;28;20478;-70
2023/11/17 00:55:17;;;;;;;0.10;0.10;;;;;;;;;;1033281;28;20435;-70
2023/11/17 00:55:49;;;;;;;1.00;0.63;;;;;;;;;;1032678;28;20085;-70
2023/11/17 00:56:19;;;;;;;0.20;0.20;;;;;;;;;;1032682;28;20188;-70
2023/11/17 00:56:50;;;;;;;0.30;0.30;;;;;;;;;;1032928;28;20457;-70
2023/11/17 00:57:21;;;;;;;0.10;0.10;;;;;;;;;;1033151;28;20026;-70
2023/11/17 00:57:51;;;;;;;1.33;0.98;;;;;;;;;;1033836;28;20018;-70
2023/11/17 00:58:23;;;;;;;0.93;0.50;;;;;;;;;;1034014;28;20034;-70
2023/11/17 00:58:54;;;;;;;1.05;0.73;;;;;;;;;;1033749;28;20037;-70
2023/11/17 00:59:24;;;;;;;0.10;0.10;;;;;;;;;;1033721;28;20065;-70
2023/11/17 00:59:55;;;;;;;0.15;0.15;;;;;;;;;;1033651;28;20113;-71
2023/11/17 01:00:27;;;;;;;1.23;0.52;;;;;;;;;;1033410;28;20117;-71
2023/11/17 01:00:58;;;;;;;0.22;0.22;;;;;;;;;;1033917;28;20025;-70
2023/11/17 01:01:28;;;;;;;5.40;2.17;;;;;;;;;;1034039;28;20026;-70
2023/11/17 01:02:01;;;;;;;0.73;0.73;;;;;;;;;;1033788;28;20069;-70
2023/11/17 01:02:31;;;;;;;1.55;0.98;;;;;;;;;;1033900;28;20018;-70
2023/11/17 01:03:02;;;;;;;0.10;0.10;;;;;;;;;;1033822;28;20029;-70
2023/11/17 01:03:32;;;;;;;0.95;0.90;;;;;;;;;;1033621;28;20627;-70
2023/11/17 01:04:04;;;;;;;0.08;0.08;;;;;;;;;;1034198;28;20026;-70
2023/11/17 01:04:34;;;;;;;3.72;1.38;;;;;;;;;;1033650;28;20037;-70
2023/11/17 01:05:09;;;;;;;0.57;0.57;;;;;;;;;;1034266;28;20053;-70
2023/11/17 01:05:39;;;;;;;0.40;0.40;;;;;;;;;;1033798;28;20034;-70
2023/11/17 01:06:10;;;;;;;3.30;1.00;;;;;;;;;;1033979;28;20054;-70
2023/11/17 01:06:41;;;;;;;0.40;0.40;;;;;;;;;;1033828;28;20030;-70
2023/11/17 01:07:11;;;;;;;0.15;0.15;;;;;;;;;;1033370;28;20068;-70
2023/11/17 01:07:42;;;;;;;2.75;0.40;;;;;;;;;;1034635;28;20429;-70
2023/11/17 01:08:12;;;;;;;0.47;0.47;;;;;;;;;;1034008;28;20023;-70
2023/11/17 01:08:43;;;;;;;0.30;0.30;;;;;;;;;;1033540;28;20018;-70
2023/11/17 01:09:14;;;;;;;1.00;0.77;;;;;;;;;;1034166;28;20028;-70
2023/11/17 01:09:45;;;;;;;0.77;0.55;;;;;;;;;;1033819;28;20033;-70
2023/11/17 01:10:16;;;;;;;0.10;0.10;;;;;;;;;;1033535;28;20061;-70
2023/11/17 01:10:46;;;;;;;0.93;0.85;;;;;;;;;;1032501;28;20112;-70
2023/11/17 01:11:17;;;;;;;0.20;0.20;;;;;;;;;;1033546;28;20028;-70
2023/11/17 01:11:48;;;;;;;0.88;0.57;;;;;;;;;;1033766;28;20422;-70
2023/11/17 01:12:21;;;;;;;0.20;0.20;;;;;;;;;;1033725;28;20030;-70
2023/11/17 01:12:52;;;;;;;0.10;0.10;;;;;;;;;;1034726;28;20033;-70
2023/11/17 01:13:23;;;;;;;0.28;0.28;;;;;;;;;;1033716;28;20014;-70
2023/11/17 01:13:54;;;;;;;0.10;0.10;;;;;;;;;;1028867;28;20093;-70
2023/11/17 01:14:24;;;;;;;0.13;0.13;;;;;;;;;;1027292;28;20023;-70
2023/11/17 01:14:55;;;;;;;0.20;0.20;;;;;;;;;;1027993;28;20106;-70
2023/11/17 01:15:25;;;;;;;5.18;4.72;;;;;;;;;;1028192;28;20019;-70
2023/11/17 01:15:56;;;;;;;2.60;0.80;;;;;;;;;;1033612;28;20403;-70
2023/11/17 01:16:26;;;;;;;1.45;1.40;;;;;;;;;;1032570;28;20555;-70
2023/11/17 01:16:57;;;;;;;0.45;0.43;;;;;;;;;;1032671;28;20028;-70
2023/11/17 01:17:27;;;;;;;0.63;0.63;;;;;;;;;;1033027;28;20014;-70
2023/11/17 01:17:58;;;;;;;0.68;0.68;;;;;;;;;;1034213;28;20061;-70
2023/11/17 01:18:28;;;;;;;0.20;0.20;;;;;;;;;;1033638;28;20030;-70
2023/11/17 01:18:59;;;;;;;2.17;1.90;;;;;;;;;;1033812;28;20030;-70
2023/11/17 01:19:29;;;;;;;1.08;1.02;;;;;;;;;;1033650;28;20498;-70
2023/11/17 01:20:00;;;;;;;0.22;0.22;;;;;;;;;;1033260;28;20033;-70
2023/11/17 01:20:31;;;;;;;0.30;0.30;;;;;;;;;;1034772;28;20532;-70
2023/11/17 01:21:02;;;;;;;0.35;0.35;;;;;;;;;;1033362;28;20057;-70
2023/11/17 01:21:32;;;;;;;0.10;0.10;;;;;;;;;;1033001;28;20509;-70
2023/11/17 01:22:04;;;;;;;0.20;0.20;;;;;;;;;;1033818;28;20029;-70
2023/11/17 01:22:35;;;;;;;5.68;0.73;;;;;;;;;;1033067;28;20388;-70
2023/11/17 01:23:06;;;;;;;0.30;0.30;;;;;;;;;;1032958;28;20060;-70
2023/11/17 01:23:37;;;;;;;0.20;0.20;;;;;;;;;;1032492;28;20080;-70
2023/11/17 01:24:08;;;;;;;0.22;0.22;;;;;;;;;;1031837;28;20112;-70
2023/11/17 01:24:40;;;;;;;0.25;0.25;;;;;;;;;;1032685;28;20517;-70
2023/11/17 01:25:12;;;;;;;0.68;0.35;;;;;;;;;;1032790;28;20077;-70
2023/11/17 01:25:43;;;;;;;0.52;0.47;;;;;;;;;;1028423;28;20026;-70
2023/11/17 01:26:17;;;;;;;3.95;0.50;;;;;;;;;;1028703;28;20023;-70
2023/11/17 01:26:49;;;;;;;1.45;1.35;;;;;;;;;;1029352;28;21067;-70
2023/11/17 01:27:20;;;;;;;22.00;1.45;;;;;;;;;;1032879;28;20082;-70
2023/11/17 01:27:51;;;;;;;0.20;0.20;;;;;;;;;;1031781;28;20021;-70
2023/11/17 01:28:21;;;;;;;1.60;1.42;;;;;;;;;;1031706;28;20447;-70
2023/11/17 01:28:52;;;;;;;0.80;0.68;;;;;;;;;;1033956;28;20087;-70
2023/11/17 01:29:23;;;;;;;1.98;0.43;;;;;;;;;;1032705;28;20073;-70
2023/11/17 01:29:53;;;;;;;0.10;0.10;;;;;;;;;;1032030;28;20022;-71
2023/11/17 01:30:24;;;;;;;0.15;0.15;;;;;;;;;;1031227;28;20074;-70
2023/11/17 01:30:55;;;;;;;0.75;0.75;;;;;;;;;;1030251;28;20018;-70
2023/11/17 01:31:25;;;;;;;1.08;0.85;;;;;;;;;;1030602;28;20025;-70
2023/11/17 01:31:59;;;;;;;7.32;0.38;;;;;;;;;;1031476;28;20157;-70
2023/11/17 01:32:31;;;;;;;2.20;0.73;;;;;;;;;;1030199;28;20022;-70
2023/11/17 01:33:03;;;;;;;0.32;0.32;;;;;;;;;;1032240;28;20033;-70
2023/11/17 01:33:34;;;;;;;0.32;0.32;;;;;;;;;;1030931;28;20058;-70
2023/11/17 01:34:04;;;;;;;0.93;0.93;;;;;;;;;;1033110;28;20026;-70
2023/11/17 01:34:36;;;;;;;0.10;0.10;;;;;;;;;;1031983;28;20018;-70
2023/11/17 01:35:06;;;;;;;0.28;0.28;;;;;;;;;;1032091;28;20030;-70
2023/11/17 01:35:38;;;;;;;0.32;0.32;;;;;;;;;;1034006;28;20045;-70
2023/11/17 01:36:09;;;;;;;2.85;1.52;;;;;;;;;;1033619;28;20113;-70
2023/11/17 01:36:40;;;;;;;0.10;0.10;;;;;;;;;;1032355;28;20018;-70
2023/11/17 01:37:11;;;;;;;0.57;0.47;;;;;;;;;;1032260;28;20116;-70
2023/11/17 01:37:45;;;;;;;0.10;0.10;;;;;;;;;;1033390;28;20077;-70
2023/11/17 01:38:16;;;;;;;0.20;0.20;;;;;;;;;;1033293;28;20504;-69
2023/11/17 01:38:48;;;;;;;0.30;0.30;;;;;;;;;;1032059;28;20522;-69
2023/11/17 01:39:20;;;;;;;0.30;0.30;;;;;;;;;;1032818;28;20398;-69
2023/11/17 01:39:51;;;;;;;0.80;0.80;;;;;;;;;;1032181;28;20026;-69
2023/11/17 01:40:25;;;;;;;0.38;0.38;;;;;;;;;;1031886;28;20378;-70
2023/11/17 01:40:58;;;;;;;0.43;0.43;;;;;;;;;;1033165;28;20041;-70
2023/11/17 01:41:28;;;;;;;0.10;0.10;;;;;;;;;;1032766;28;20026;-70
2023/11/17 01:41:59;;;;;;;0.38;0.20;;;;;;;;;;1033093;28;20402;-70
2023/11/17 01:42:33;;;;;;;3.72;0.52;;;;;;;;;;1032031;28;20466;-70
2023/11/17 01:43:05;;;;;;;0.15;0.15;;;;;;;;;;1033452;28;20061;-70
2023/11/17 01:43:36;;;;;;;0.88;0.88;;;;;;;;;;1032428;28;20071;-70
2023/11/17 01:44:06;;;;;;;5.05;1.73;;;;;;;;;;1031901;28;20103;-70
2023/11/17 01:44:37;;;;;;;0.30;0.30;;;;;;;;;;1032724;28;20033;-70
2023/11/17 01:45:08;;;;;;;0.95;0.93;;;;;;;;;;1034474;28;20018;-70
2023/11/17 01:45:39;;;;;;;0.10;0.10;;;;;;;;;;1033560;28;20132;-71
2023/11/17 01:46:10;;;;;;;0.28;0.28;;;;;;;;;;1033224;28;20028;-71
2023/11/17 01:46:44;;;;;;;3.72;1.48;;;;;;;;;;1032229;28;20482;-71
2023/11/17 01:47:14;;;;;;;0.28;0.28;;;;;;;;;;1032654;28;20072;-71
2023/11/17 01:47:45;;;;;;;0.60;0.60;;;;;;;;;;1032699;28;20620;-71
2023/11/17 01:48:16;;;;;;;0.30;0.30;;;;;;;;;;1034060;28;20033;-71
2023/11/17 01:48:47;;;;;;;0.20;0.20;;;;;;;;;;1033315;28;20466;-71
2023/11/17 01:49:19;;;;;;;3.70;0.90;;;;;;;;;;1030637;28;20432;-72
2023/11/17 01:49:50;;;;;;;0.17;0.17;;;;;;;;;;1029958;28;20030;-71
2023/11/17 01:50:21;;;;;;;0.15;0.15;;;;;;;;;;1030592;28;20030;-71
2023/11/17 01:50:52;;;;;;;1.60;1.02;;;;;;;;;;1028321;28;20141;-71
2023/11/17 01:51:23;;;;;;;4.05;1.83;;;;;;;;;;1033145;28;20058;-71
2023/11/17 01:51:53;;;;;;;0.50;0.50;;;;;;;;;;1032090;28;20034;-71
2023/11/17 01:52:24;;;;;;;7.22;0.63;;;;;;;;;;1032129;28;20497;-71
2023/11/17 01:52:55;;;;;;;2.10;1.95;;;;;;;;;;1032786;28;20038;-71
2023/11/17 01:53:29;;;;;;;1.85;0.68;;;;;;;;;;1032952;28;20037;-71
2023/11/17 01:54:01;;;;;;;0.10;0.10;;;;;;;;;;1032985;28;20508;-71
2023/11/17 01:54:35;;;;;;;7.93;1.13;;;;;;;;;;1033333;28;20025;-71
2023/11/17 01:55:08;;;;;;;0.60;0.60;;;;;;;;;;1031416;28;20041;-72
2023/11/17 01:55:40;;;;;;;1.00;0.47;;;;;;;;;;1031513;28;20885;-72
2023/11/17 01:56:11;;;;;;;6.93;1.73;;;;;;;;;;1033158;28;20025;-71
2023/11/17 01:56:42;;;;;;;0.25;0.25;;;;;;;;;;1033393;28;20663;-71
2023/11/17 01:57:14;;;;;;;1.15;0.57;;;;;;;;;;1032898;28;20519;-71
2023/11/17 01:57:45;;;;;;;1.55;0.52;;;;;;;;;;1030933;28;20121;-71
2023/11/17 01:58:16;;;;;;;2.25;1.40;;;;;;;;;;1036243;28;20384;-71
2023/11/17 01:58:50;;;;;;;1.83;1.73;;;;;;;;;;1032681;28;20034;-71
2023/11/17 01:59:21;;;;;;;0.43;0.43;;;;;;;;;;1029587;28;20042;-71
2023/11/17 01:59:52;;;;;;;0.47;0.47;;;;;;;;;;1029607;28;20069;-71
2023/11/17 02:00:22;;;;;;;1.98;0.68;;;;;;;;;;1029096;28;20344;-71
2023/11/17 02:00:53;;;;;;;0.73;0.43;;;;;;;;;;1029346;28;20057;-71
2023/11/17 02:01:27;;;;;;;0.30;0.30;;;;;;;;;;1032908;28;20100;-71
2023/11/17 02:02:05;;;;;;;1.27;1.17;;;;;;;;;;1031803;28;20026;-71
2023/11/17 02:02:38;;;;;;;0.43;0.43;;;;;;;;;;1031454;28;20487;-71
2023/11/17 02:03:09;;;;;;;1.48;1.38;;;;;;;;;;1031987;28;20425;-71
2023/11/17 02:03:40;;;;;;;0.32;0.32;;;;;;;;;;1031844;28;20036;-71
2023/11/17 02:04:10;;;;;;;0.65;0.65;;;;;;;;;;1030843;28;20018;-72
2023/11/17 02:04:41;;;;;;;1.13;0.77;;;;;;;;;;1028343;28;20026;-71
2023/11/17 02:05:12;;;;;;;0.40;0.40;;;;;;;;;;1029030;28;20426;-71
2023/11/17 02:05:43;;;;;;;1.60;1.50;;;;;;;;;;1028200;28;20033;-71
2023/11/17 02:06:14;;;;;;;0.85;0.85;;;;;;;;;;1023370;28;20530;-72
2023/11/17 02:06:56;;;;;;;0.35;0.35;;;;;;;;;;1024468;28;20078;-71
2023/11/17 02:07:39;;;;;;;0.20;0.20;;;;;;;;;;1027096;28;20060;-70
2023/11/17 02:08:32;;;;;;;2.28;1.85;;;;;;;;;;1031720;28;20586;-70
2023/11/17 02:09:13;;;;;;;0.47;0.47;;;;;;;;;;1032508;28;20018;-70
2023/11/17 02:09:50;;;;;;;0.20;0.20;;;;;;;;;;1032349;28;20406;-70
2023/11/17 02:10:40;;;;;;;0.30;0.30;;;;;;;;;;1032830;28;20056;-70
2023/11/17 02:11:11;;;;;;;0.20;0.20;;;;;;;;;;1032331;28;20022;-71
2023/11/17 02:11:50;;;;;;;0.57;0.57;;;;;;;;;;1030660;28;20065;-71
2023/11/17 02:12:46;;;;;;;9.52;1.20;;;;;;;;;;1027568;28;20022;-71
2023/11/17 02:13:25;;;;;;;0.17;0.17;;;;;;;;;;1025706;28;20081;-71
2023/11/17 02:14:05;;;;;;;1.25;0.32;;;;;;;;;;1028929;28;20034;-71
2023/11/17 02:14:37;;;;;;;0.47;0.40;;;;;;;;;;1032128;28;20035;-71
2023/11/17 02:15:11;;;;;;;0.30;0.30;;;;;;;;;;1032962;28;20112;-71
2023/11/17 02:15:43;;;;;;;0.50;0.50;;;;;;;;;;1032321;28;20148;-71
2023/11/17 02:16:17;;;;;;;1.40;1.38;;;;;;;;;;1032833;28;20446;-71
2023/11/17 02:16:50;;;;;;;0.00;0.00;;;;;;;;;;1032211;28;20073;-71
2023/11/17 02:17:28;;;;;;;2.92;0.40;;;;;;;;;;1032886;28;20034;-71
2023/11/17 02:18:04;;;;;;;1.60;0.77;;;;;;;;;;1032650;28;20069;-71
2023/11/17 02:18:35;;;;;;;3.50;1.65;;;;;;;;;;1030020;28;20511;-70
2023/11/17 02:19:15;;;;;;;3.38;1.02;;;;;;;;;;1031597;28;20053;-70
2023/11/17 02:19:46;;;;;;;5.72;1.17;;;;;;;;;;1030271;28;20079;-71
2023/11/17 02:20:20;;;;;;;2.47;1.50;;;;;;;;;;1028624;28;20105;-70
2023/11/17 02:20:52;;;;;;;1.98;1.17;;;;;;;;;;1031771;28;20038;-71
2023/11/17 02:21:30;;;;;;;4.80;0.85;;;;;;;;;;1031918;28;20120;-70
2023/11/17 02:22:06;;;;;;;3.35;0.30;;;;;;;;;;1031900;28;20067;-71
2023/11/17 02:22:41;;;;;;;0.60;0.35;;;;;;;;;;1030591;28;20052;-70
2023/11/17 02:23:15;;;;;;;0.20;0.20;;;;;;;;;;1031904;28;20478;-70
2023/11/17 02:23:46;;;;;;;1.95;0.75;;;;;;;;;;1031681;28;20033;-70
2023/11/17 02:24:17;;;;;;;1.80;1.42;;;;;;;;;;1032053;28;20358;-70
2023/11/17 02:24:50;;;;;;;0.80;0.80;;;;;;;;;;1030947;28;20022;-71
2023/11/17 02:25:28;;;;;;;0.28;0.28;;;;;;;;;;1030900;28;20129;-71
2023/11/17 02:26:17;;;;;;;0.00;0.00;;;;;;;;;;1027542;28;20058;-71
2023/11/17 02:27:00;;;;;;;0.00;0.00;;;;;;;;;;1026650;28;20106;-71
2023/11/17 02:27:59;;;;;;;1.42;0.77;;;;;;;;;;1028560;28;20108;-70
2023/11/17 02:28:41;;;;;;;0.10;0.10;;;;;;;;;;1012533;29;20071;-70
2023/11/17 02:29:23;;;;;;;1.08;1.00;;;;;;;;;;1024361;28;20405;-70
2023/11/17 02:30:02;;;;;;;0.73;0.73;;;;;;;;;;1030867;28;20030;-70
2023/11/17 02:30:34;;;;;;;5.07;0.55;;;;;;;;;;1035668;28;20033;-69
2023/11/17 02:31:25;;;;;;;2.65;0.90;;;;;;;;;;1032581;28;20037;-70
2023/11/17 02:31:59;;;;;;;1.45;1.10;;;;;;;;;;1030907;28;20522;-70
2023/11/17 02:32:31;;;;;;;0.50;0.50;;;;;;;;;;1030967;28;20192;-70
2023/11/17 02:33:07;;;;;;;0.32;0.32;;;;;;;;;;1028557;28;20022;-70
2023/11/17 02:33:41;;;;;;;1.90;1.58;;;;;;;;;;1028441;28;20581;-70
2023/11/17 02:34:14;;;;;;;5.25;0.75;;;;;;;;;;1026617;28;20034;-70
2023/11/17 02:34:45;;;;;;;1.60;1.02;;;;;;;;;;1027913;28;20072;-69
2023/11/17 02:35:16;;;;;;;0.10;0.10;;;;;;;;;;1031727;28;20559;-70
2023/11/17 02:35:49;;;;;;;1.67;1.58;;;;;;;;;;1030325;28;20041;-70
2023/11/17 02:36:19;;;;;;;1.27;1.17;;;;;;;;;;1031786;28;20429;-70
2023/11/17 02:36:51;;;;;;;1.70;1.35;;;;;;;;;;1028495;28;20026;-70
2023/11/17 02:37:24;;;;;;;2.03;1.27;;;;;;;;;;1027365;28;20541;-69
2023/11/17 02:37:57;;;;;;;0.43;0.38;;;;;;;;;;1029966;28;20560;-71
2023/11/17 02:38:27;;;;;;;1.40;0.93;;;;;;;;;;1027562;28;20040;-69
2023/11/17 02:39:13;;;;;;;2.42;0.95;;;;;;;;;;1032203;28;20026;-70
2023/11/17 02:39:45;;;;;;;0.50;0.50;;;;;;;;;;1029833;28;20575;-69
2023/11/17 02:40:19;;;;;;;0.82;0.45;;;;;;;;;;1029875;28;20072;-69
2023/11/17 02:40:55;;;;;;;1.20;1.13;;;;;;;;;;1027694;28;20034;-70
2023/11/17 02:41:37;;;;;;;1.27;1.13;;;;;;;;;;1028307;28;20133;-70
2023/11/17 02:42:10;;;;;;;0.10;0.10;;;;;;;;;;1031177;28;20036;-70
2023/11/17 02:42:42;;;;;;;0.73;0.73;;;;;;;;;;1030082;28;20022;-70
2023/11/17 02:43:13;;;;;;;1.90;1.33;;;;;;;;;;1030171;28;20038;-71
2023/11/17 02:43:43;;;;;;;2.85;0.88;;;;;;;;;;1027638;28;20495;-70
2023/11/17 02:44:15;;;;;;;0.52;0.45;;;;;;;;;;1027731;28;20386;-70
2023/11/17 02:44:47;;;;;;;4.40;1.27;;;;;;;;;;1029821;28;20055;-71
2023/11/17 02:45:24;;;;;;;6.55;2.03;;;;;;;;;;1032137;28;20026;-70
2023/11/17 02:45:55;;;;;;;10.57;1.98;;;;;;;;;;1030288;28;20157;-71
2023/11/17 02:46:26;;;;;;;0.70;0.70;;;;;;;;;;1031582;28;20034;-70
2023/11/17 02:47:03;;;;;;;6.32;1.60;;;;;;;;;;1032637;28;20025;-70
2023/11/17 02:47:35;;;;;;;0.35;0.35;;;;;;;;;;1032070;28;20600;-69
2023/11/17 02:48:10;;;;;;;3.20;2.40;;;;;;;;;;1032088;28;20148;-70
2023/11/17 02:48:45;;;;;;;0.40;0.40;;;;;;;;;;1029307;28;21672;-70
2023/11/17 02:49:22;;;;;;;0.20;0.20;;;;;;;;;;1026885;28;20152;-70
2023/11/17 02:50:00;;;;;;;1.48;1.38;;;;;;;;;;1031111;28;20690;-70
2023/11/17 02:50:53;;;;;;;6.63;1.40;;;;;;;;;;1030608;28;20026;-70
2023/11/17 02:51:27;;;;;;;0.30;0.30;;;;;;;;;;1031249;28;20029;-71
2023/11/17 02:52:03;;;;;;;0.10;0.10;;;;;;;;;;1027753;28;20033;-70
2023/11/17 02:53:28;;;;;;;0.73;0.38;;;;;;;;;;1021591;28;20499;-71
2023/11/17 02:54:01;;;;;;;2.75;1.67;;;;;;;;;;1027622;28;21287;-71
2023/11/17 02:54:34;;;;;;;0.30;0.30;;;;;;;;;;1029260;28;20086;-70
2023/11/17 02:55:05;;;;;;;2.38;2.17;;;;;;;;;;1030133;28;20089;-71
2023/11/17 02:55:36;;;;;;;5.35;2.85;;;;;;;;;;1029851;28;20029;-70
2023/11/17 02:56:06;;;;;;;3.85;0.65;;;;;;;;;;1030352;28;20029;-69
2023/11/17 02:56:40;;;;;;;1.25;0.98;;;;;;;;;;1030482;28;20156;-70
2023/11/17 02:57:12;;;;;;;1.45;1.35;;;;;;;;;;1031069;28;20710;-69
2023/11/17 02:57:44;;;;;;;0.22;0.22;;;;;;;;;;1029759;28;20096;-70
2023/11/17 02:58:16;;;;;;;0.73;0.73;;;;;;;;;;1031382;28;20072;-69
2023/11/17 02:58:48;;;;;;;0.22;0.22;;;;;;;;;;1031995;28;20054;-69
2023/11/17 02:59:19;;;;;;;5.68;1.52;;;;;;;;;;1031527;28;20382;-71
2023/11/17 02:59:50;;;;;;;0.20;0.20;;;;;;;;;;1031716;28;20093;-70
2023/11/17 03:00:23;;;;;;;5.38;1.85;;;;;;;;;;1030280;28;20029;-69
2023/11/17 03:00:54;;;;;;;0.20;0.20;;;;;;;;;;1030424;28;20034;-70
2023/11/17 03:01:25;;;;;;;0.80;0.68;;;;;;;;;;1031153;28;20032;-70
2023/11/17 03:01:58;;;;;;;0.68;0.68;;;;;;;;;;1032547;28;20091;-70
2023/11/17 03:02:28;;;;;;;0.35;0.30;;;;;;;;;;1031970;28;20022;-69
2023/11/17 03:02:59;;;;;;;2.60;1.55;;;;;;;;;;1032336;28;20056;-71
2023/11/17 03:03:30;;;;;;;18.73;1.45;;;;;;;;;;1031198;28;20032;-70
2023/11/17 03:04:00;;;;;;;1.88;1.50;;;;;;;;;;1030980;28;20034;-72
2023/11/17 03:04:32;;;;;;;0.32;0.32;;;;;;;;;;1028976;28;20138;-70
2023/11/17 03:05:02;;;;;;;2.30;1.55;;;;;;;;;;1026571;28;20029;-70
2023/11/17 03:05:35;;;;;;;15.73;1.25;;;;;;;;;;1026101;28;20405;-71
2023/11/17 03:06:06;;;;;;;0.32;0.25;;;;;;;;;;1026067;28;20041;-71
2023/11/17 03:06:37;;;;;;;0.30;0.22;;;;;;;;;;1027524;28;20224;-70
2023/11/17 03:07:08;;;;;;;2.40;0.73;;;;;;;;;;1029127;28;20168;-71
2023/11/17 03:07:39;;;;;;;1.35;1.30;;;;;;;;;;1029687;28;20410;-71
2023/11/17 03:08:10;;;;;;;0.32;0.32;;;;;;;;;;1030563;28;20104;-71
2023/11/17 03:08:41;;;;;;;0.20;0.20;;;;;;;;;;1023464;28;20030;-70
2023/11/17 03:09:21;;;;;;;1.73;1.00;;;;;;;;;;1024294;28;20054;-71
2023/11/17 03:09:53;;;;;;;0.90;0.82;;;;;;;;;;1028011;28;20310;-71
2023/11/17 03:10:24;;;;;;;1.83;1.35;;;;;;;;;;1030501;28;20117;-71
2023/11/17 03:11:00;;;;;;;0.20;0.20;;;;;;;;;;1029168;28;20030;-72
2023/11/17 03:11:32;;;;;;;0.55;0.55;;;;;;;;;;1027767;28;20388;-71
2023/11/17 03:12:11;;;;;;;0.30;0.22;;;;;;;;;;1028886;28;20030;-70
2023/11/17 03:12:41;;;;;;;0.13;0.13;;;;;;;;;;1028485;28;20921;-70
2023/11/17 03:13:16;;;;;;;0.13;0.13;;;;;;;;;;1029593;28;20034;-70
2023/11/17 03:13:48;;;;;;;0.43;0.40;;;;;;;;;;1030620;28;20524;-70
2023/11/17 03:14:20;;;;;;;2.65;1.80;;;;;;;;;;1024888;28;20120;-70
2023/11/17 03:14:53;;;;;;;6.50;1.90;;;;;;;;;;1026673;28;20133;-71
2023/11/17 03:15:24;;;;;;;2.17;2.00;;;;;;;;;;1028427;28;20034;-70